sensor_id;sensor_type;location;lat;lon;timestamp;P1;durP1;ratioP1;P2;durP2;ratioP2
65835;SDS011;52595;51.608;7.216;2023-06-01T00:01:37;11.25;;;5.80;;
65835;SDS011;52595;51.608;7.216;2023-06-01T00:04:05;10.88;;;5.65;;
65835;SDS011;52595;51.608;7.216;2023-06-01T00:06:30;12.10;;;5.38;;
65835;SDS011;52595;51.608;7.216;2023-06-01T00:08:57;10.48;;;5.85;;
65835;SDS011;52595;51.608;7.216;2023-06-01T00:11:22;10.65;;;5.47;;
65835;SDS011;52595;51.608;7.216;2023-06-01T00:13:48;12.85;;;6.15;;
65835;SDS011;52595;51.608;7.216;2023-06-01T00:16:15;15.63;;;6.68;;
65835;SDS011;52595;51.608;7.216;2023-06-01T00:18:41;12.93;;;5.90;;
65835;SDS011;52595;51.608;7.216;2023-06-01T00:21:06;14.68;;;6.85;;
65835;SDS011;52595;51.608;7.216;2023-06-01T00:23:32;14.63;;;6.82;;
65835;SDS011;52595;51.608;7.216;2023-06-01T00:25:58;12.23;;;6.93;;
65835;SDS011;52595;51.608;7.216;2023-06-01T00:28:23;12.60;;;6.97;;
65835;SDS011;52595;51.608;7.216;2023-06-01T00:30:48;13.07;;;6.53;;
65835;SDS011;52595;51.608;7.216;2023-06-01T00:33:14;11.90;;;6.88;;
65835;SDS011;52595;51.608;7.216;2023-06-01T00:35:40;15.68;;;6.63;;
65835;SDS011;52595;51.608;7.216;2023-06-01T00:38:05;11.38;;;6.57;;
65835;SDS011;52595;51.608;7.216;2023-06-01T00:40:32;11.90;;;6.97;;
65835;SDS011;52595;51.608;7.216;2023-06-01T00:42:58;15.43;;;7.30;;
65835;SDS011;52595;51.608;7.216;2023-06-01T00:45:23;12.63;;;7.40;;
65835;SDS011;52595;51.608;7.216;2023-06-01T00:47:48;13.57;;;7.15;;
65835;SDS011;52595;51.608;7.216;2023-06-01T00:50:14;15.00;;;7.45;;
65835;SDS011;52595;51.608;7.216;2023-06-01T00:52:39;14.25;;;7.18;;
65835;SDS011;52595;51.608;7.216;2023-06-01T00:55:05;17.52;;;7.25;;
65835;SDS011;52595;51.608;7.216;2023-06-01T00:57:31;13.45;;;7.85;;
65835;SDS011;52595;51.608;7.216;2023-06-01T00:59:57;14.50;;;7.40;;
65835;SDS011;52595;51.608;7.216;2023-06-01T01:02:23;16.98;;;8.20;;
65835;SDS011;52595;51.608;7.216;2023-06-01T01:04:48;19.15;;;7.80;;
65835;SDS011;52595;51.608;7.216;2023-06-01T01:07:31;16.83;;;7.47;;
65835;SDS011;52595;51.608;7.216;2023-06-01T01:10:06;15.88;;;7.97;;
65835;SDS011;52595;51.608;7.216;2023-06-01T01:12:41;14.93;;;8.27;;
65835;SDS011;52595;51.608;7.216;2023-06-01T01:15:14;14.65;;;8.10;;
65835;SDS011;52595;51.608;7.216;2023-06-01T01:17:44;16.75;;;8.02;;
65835;SDS011;52595;51.608;7.216;2023-06-01T01:25:27;16.45;;;7.35;;
65835;SDS011;52595;51.608;7.216;2023-06-01T01:28:28;15.48;;;8.02;;
65835;SDS011;52595;51.608;7.216;2023-06-01T01:31:01;18.85;;;8.07;;
65835;SDS011;52595;51.608;7.216;2023-06-01T01:33:29;16.63;;;8.38;;
65835;SDS011;52595;51.608;7.216;2023-06-01T01:35:56;18.10;;;8.50;;
65835;SDS011;52595;51.608;7.216;2023-06-01T01:38:22;16.60;;;8.07;;
65835;SDS011;52595;51.608;7.216;2023-06-01T01:40:47;18.00;;;9.00;;
65835;SDS011;52595;51.608;7.216;2023-06-01T01:43:15;17.77;;;8.98;;
65835;SDS011;52595;51.608;7.216;2023-06-01T01:45:41;19.48;;;9.35;;
65835;SDS011;52595;51.608;7.216;2023-06-01T01:50:58;22.58;;;8.90;;
65835;SDS011;52595;51.608;7.216;2023-06-01T01:53:32;15.18;;;8.65;;
65835;SDS011;52595;51.608;7.216;2023-06-01T01:55:58;15.57;;;8.55;;
65835;SDS011;52595;51.608;7.216;2023-06-01T01:58:25;17.75;;;8.70;;
65835;SDS011;52595;51.608;7.216;2023-06-01T02:00:52;17.92;;;9.25;;
65835;SDS011;52595;51.608;7.216;2023-06-01T02:03:18;17.80;;;9.68;;
65835;SDS011;52595;51.608;7.216;2023-06-01T02:05:44;20.95;;;9.38;;
65835;SDS011;52595;51.608;7.216;2023-06-01T02:08:09;20.27;;;9.52;;
65835;SDS011;52595;51.608;7.216;2023-06-01T02:10:36;16.98;;;9.57;;
65835;SDS011;52595;51.608;7.216;2023-06-01T02:13:02;21.73;;;10.00;;
65835;SDS011;52595;51.608;7.216;2023-06-01T02:15:28;17.23;;;8.93;;
65835;SDS011;52595;51.608;7.216;2023-06-01T02:17:53;18.90;;;9.57;;
65835;SDS011;52595;51.608;7.216;2023-06-01T02:20:18;20.08;;;10.02;;
65835;SDS011;52595;51.608;7.216;2023-06-01T02:22:44;21.27;;;10.23;;
65835;SDS011;52595;51.608;7.216;2023-06-01T02:25:10;22.85;;;9.75;;
65835;SDS011;52595;51.608;7.216;2023-06-01T02:27:35;24.13;;;10.90;;
65835;SDS011;52595;51.608;7.216;2023-06-01T02:30:00;23.17;;;10.57;;
65835;SDS011;52595;51.608;7.216;2023-06-01T02:32:26;24.90;;;10.50;;
65835;SDS011;52595;51.608;7.216;2023-06-01T02:34:51;23.05;;;10.93;;
65835;SDS011;52595;51.608;7.216;2023-06-01T02:37:17;20.65;;;10.27;;
65835;SDS011;52595;51.608;7.216;2023-06-01T02:39:42;23.20;;;11.38;;
65835;SDS011;52595;51.608;7.216;2023-06-01T02:42:08;24.45;;;10.15;;
65835;SDS011;52595;51.608;7.216;2023-06-01T02:44:33;18.13;;;10.02;;
65835;SDS011;52595;51.608;7.216;2023-06-01T02:46:58;21.33;;;10.70;;
65835;SDS011;52595;51.608;7.216;2023-06-01T02:49:24;20.05;;;10.75;;
65835;SDS011;52595;51.608;7.216;2023-06-01T02:51:49;20.25;;;10.57;;
65835;SDS011;52595;51.608;7.216;2023-06-01T02:54:15;18.80;;;10.43;;
65835;SDS011;52595;51.608;7.216;2023-06-01T02:56:40;21.05;;;10.70;;
65835;SDS011;52595;51.608;7.216;2023-06-01T02:59:05;26.27;;;11.02;;
65835;SDS011;52595;51.608;7.216;2023-06-01T03:01:31;19.17;;;10.23;;
65835;SDS011;52595;51.608;7.216;2023-06-01T03:04:01;20.33;;;10.38;;
65835;SDS011;52595;51.608;7.216;2023-06-01T03:06:29;18.10;;;10.15;;
65835;SDS011;52595;51.608;7.216;2023-06-01T03:08:56;20.88;;;9.90;;
65835;SDS011;52595;51.608;7.216;2023-06-01T03:11:23;19.25;;;10.90;;
65835;SDS011;52595;51.608;7.216;2023-06-01T03:13:48;21.20;;;10.65;;
65835;SDS011;52595;51.608;7.216;2023-06-01T03:16:15;18.20;;;10.15;;
65835;SDS011;52595;51.608;7.216;2023-06-01T03:18:41;20.90;;;10.52;;
65835;SDS011;52595;51.608;7.216;2023-06-01T03:21:07;22.98;;;10.23;;
65835;SDS011;52595;51.608;7.216;2023-06-01T03:23:32;19.65;;;10.30;;
65835;SDS011;52595;51.608;7.216;2023-06-01T03:25:58;19.33;;;10.25;;
65835;SDS011;52595;51.608;7.216;2023-06-01T03:28:24;19.42;;;10.13;;
65835;SDS011;52595;51.608;7.216;2023-06-01T03:30:49;19.33;;;9.63;;
65835;SDS011;52595;51.608;7.216;2023-06-01T03:33:16;17.13;;;9.68;;
65835;SDS011;52595;51.608;7.216;2023-06-01T03:35:41;16.92;;;9.55;;
65835;SDS011;52595;51.608;7.216;2023-06-01T03:38:09;16.60;;;9.07;;
65835;SDS011;52595;51.608;7.216;2023-06-01T03:40:34;18.27;;;9.52;;
65835;SDS011;52595;51.608;7.216;2023-06-01T03:43:00;17.88;;;9.95;;
65835;SDS011;52595;51.608;7.216;2023-06-01T03:45:25;16.90;;;9.43;;
65835;SDS011;52595;51.608;7.216;2023-06-01T03:47:51;17.73;;;9.07;;
65835;SDS011;52595;51.608;7.216;2023-06-01T03:50:16;16.58;;;9.35;;
65835;SDS011;52595;51.608;7.216;2023-06-01T03:52:42;17.67;;;9.02;;
65835;SDS011;52595;51.608;7.216;2023-06-01T03:55:07;19.33;;;9.23;;
65835;SDS011;52595;51.608;7.216;2023-06-01T03:57:35;19.88;;;9.27;;
65835;SDS011;52595;51.608;7.216;2023-06-01T04:00:01;17.88;;;9.57;;
65835;SDS011;52595;51.608;7.216;2023-06-01T04:02:52;13.57;;;8.30;;
65835;SDS011;52595;51.608;7.216;2023-06-01T04:05:20;14.60;;;8.57;;
65835;SDS011;52595;51.608;7.216;2023-06-01T04:07:47;13.48;;;8.02;;
65835;SDS011;52595;51.608;7.216;2023-06-01T04:10:14;14.90;;;8.43;;
65835;SDS011;52595;51.608;7.216;2023-06-01T04:12:41;16.20;;;9.15;;
65835;SDS011;52595;51.608;7.216;2023-06-01T04:15:08;15.00;;;8.10;;
65835;SDS011;52595;51.608;7.216;2023-06-01T04:17:36;19.75;;;8.30;;
65835;SDS011;52595;51.608;7.216;2023-06-01T04:20:03;15.32;;;8.25;;
65835;SDS011;52595;51.608;7.216;2023-06-01T04:22:34;17.35;;;9.18;;
65835;SDS011;52595;51.608;7.216;2023-06-01T04:25:00;15.82;;;7.75;;
65835;SDS011;52595;51.608;7.216;2023-06-01T04:27:25;18.30;;;8.48;;
65835;SDS011;52595;51.608;7.216;2023-06-01T04:29:51;14.60;;;8.63;;
65835;SDS011;52595;51.608;7.216;2023-06-01T04:32:18;14.10;;;7.68;;
65835;SDS011;52595;51.608;7.216;2023-06-01T04:34:49;15.77;;;8.20;;
65835;SDS011;52595;51.608;7.216;2023-06-01T04:37:16;13.25;;;7.95;;
65835;SDS011;52595;51.608;7.216;2023-06-01T04:39:45;14.38;;;8.65;;
65835;SDS011;52595;51.608;7.216;2023-06-01T04:42:14;14.25;;;8.68;;
65835;SDS011;52595;51.608;7.216;2023-06-01T04:44:41;13.98;;;7.75;;
65835;SDS011;52595;51.608;7.216;2023-06-01T04:47:15;11.82;;;7.53;;
65835;SDS011;52595;51.608;7.216;2023-06-01T04:49:41;16.27;;;7.85;;
65835;SDS011;52595;51.608;7.216;2023-06-01T04:52:07;14.77;;;8.00;;
65835;SDS011;52595;51.608;7.216;2023-06-01T04:54:35;16.27;;;8.23;;
65835;SDS011;52595;51.608;7.216;2023-06-01T04:57:00;14.55;;;7.65;;
65835;SDS011;52595;51.608;7.216;2023-06-01T04:59:26;14.65;;;8.23;;
65835;SDS011;52595;51.608;7.216;2023-06-01T05:01:52;11.68;;;7.32;;
65835;SDS011;52595;51.608;7.216;2023-06-01T05:04:17;14.75;;;7.90;;
65835;SDS011;52595;51.608;7.216;2023-06-01T05:06:43;14.73;;;7.97;;
65835;SDS011;52595;51.608;7.216;2023-06-01T05:09:08;15.20;;;7.50;;
65835;SDS011;52595;51.608;7.216;2023-06-01T05:11:33;12.65;;;7.60;;
65835;SDS011;52595;51.608;7.216;2023-06-01T05:13:59;13.50;;;7.55;;
65835;SDS011;52595;51.608;7.216;2023-06-01T05:16:27;11.02;;;7.20;;
65835;SDS011;52595;51.608;7.216;2023-06-01T05:18:53;13.82;;;7.40;;
65835;SDS011;52595;51.608;7.216;2023-06-01T05:21:20;13.55;;;8.05;;
65835;SDS011;52595;51.608;7.216;2023-06-01T05:23:45;13.63;;;7.78;;
65835;SDS011;52595;51.608;7.216;2023-06-01T05:26:11;16.38;;;7.93;;
65835;SDS011;52595;51.608;7.216;2023-06-01T05:28:36;15.80;;;7.47;;
65835;SDS011;52595;51.608;7.216;2023-06-01T05:31:02;14.38;;;7.40;;
65835;SDS011;52595;51.608;7.216;2023-06-01T05:33:28;15.52;;;6.85;;
65835;SDS011;52595;51.608;7.216;2023-06-01T05:35:53;11.98;;;7.40;;
65835;SDS011;52595;51.608;7.216;2023-06-01T05:38:19;16.00;;;6.90;;
65835;SDS011;52595;51.608;7.216;2023-06-01T05:40:44;12.88;;;7.60;;
65835;SDS011;52595;51.608;7.216;2023-06-01T05:43:10;15.75;;;7.57;;
65835;SDS011;52595;51.608;7.216;2023-06-01T05:45:36;12.73;;;7.25;;
65835;SDS011;52595;51.608;7.216;2023-06-01T05:48:01;12.40;;;7.47;;
65835;SDS011;52595;51.608;7.216;2023-06-01T05:50:27;14.20;;;7.28;;
65835;SDS011;52595;51.608;7.216;2023-06-01T05:52:52;13.07;;;7.50;;
65835;SDS011;52595;51.608;7.216;2023-06-01T05:55:18;12.85;;;7.35;;
65835;SDS011;52595;51.608;7.216;2023-06-01T05:57:44;12.10;;;7.13;;
65835;SDS011;52595;51.608;7.216;2023-06-01T06:00:10;17.75;;;7.13;;
65835;SDS011;52595;51.608;7.216;2023-06-01T06:02:38;12.95;;;7.28;;
65835;SDS011;52595;51.608;7.216;2023-06-01T06:05:04;14.80;;;6.85;;
65835;SDS011;52595;51.608;7.216;2023-06-01T06:07:30;12.98;;;7.10;;
65835;SDS011;52595;51.608;7.216;2023-06-01T06:09:56;14.60;;;7.57;;
65835;SDS011;52595;51.608;7.216;2023-06-01T06:12:21;13.30;;;7.07;;
65835;SDS011;52595;51.608;7.216;2023-06-01T06:14:47;13.20;;;7.50;;
65835;SDS011;52595;51.608;7.216;2023-06-01T06:17:14;12.68;;;6.90;;
65835;SDS011;52595;51.608;7.216;2023-06-01T06:19:40;14.00;;;7.63;;
65835;SDS011;52595;51.608;7.216;2023-06-01T06:22:08;12.05;;;7.13;;
65835;SDS011;52595;51.608;7.216;2023-06-01T06:24:34;13.07;;;7.70;;
65835;SDS011;52595;51.608;7.216;2023-06-01T06:26:59;16.85;;;7.25;;
65835;SDS011;52595;51.608;7.216;2023-06-01T06:29:25;12.15;;;6.95;;
65835;SDS011;52595;51.608;7.216;2023-06-01T06:31:50;13.95;;;7.13;;
65835;SDS011;52595;51.608;7.216;2023-06-01T06:34:16;16.00;;;7.50;;
65835;SDS011;52595;51.608;7.216;2023-06-01T06:36:41;14.10;;;6.93;;
65835;SDS011;52595;51.608;7.216;2023-06-01T06:39:06;11.70;;;6.95;;
65835;SDS011;52595;51.608;7.216;2023-06-01T06:41:32;12.48;;;7.70;;
65835;SDS011;52595;51.608;7.216;2023-06-01T06:43:57;12.18;;;7.00;;
65835;SDS011;52595;51.608;7.216;2023-06-01T06:46:23;13.65;;;7.60;;
65835;SDS011;52595;51.608;7.216;2023-06-01T06:48:48;14.43;;;7.35;;
65835;SDS011;52595;51.608;7.216;2023-06-01T06:51:13;13.73;;;7.72;;
65835;SDS011;52595;51.608;7.216;2023-06-01T06:53:39;19.02;;;7.28;;
65835;SDS011;52595;51.608;7.216;2023-06-01T06:56:04;15.43;;;7.32;;
65835;SDS011;52595;51.608;7.216;2023-06-01T06:58:30;14.35;;;7.43;;
65835;SDS011;52595;51.608;7.216;2023-06-01T07:00:55;14.05;;;7.45;;
65835;SDS011;52595;51.608;7.216;2023-06-01T07:03:21;15.00;;;7.60;;
65835;SDS011;52595;51.608;7.216;2023-06-01T07:05:46;14.50;;;7.93;;
65835;SDS011;52595;51.608;7.216;2023-06-01T07:08:12;12.52;;;7.18;;
65835;SDS011;52595;51.608;7.216;2023-06-01T07:10:38;13.15;;;7.47;;
65835;SDS011;52595;51.608;7.216;2023-06-01T07:13:04;12.48;;;7.28;;
65835;SDS011;52595;51.608;7.216;2023-06-01T07:15:29;14.30;;;7.50;;
65835;SDS011;52595;51.608;7.216;2023-06-01T07:17:55;12.88;;;7.40;;
65835;SDS011;52595;51.608;7.216;2023-06-01T07:20:20;11.75;;;7.68;;
65835;SDS011;52595;51.608;7.216;2023-06-01T07:22:46;19.33;;;8.57;;
65835;SDS011;52595;51.608;7.216;2023-06-01T07:25:12;15.23;;;8.00;;
65835;SDS011;52595;51.608;7.216;2023-06-01T07:27:38;14.95;;;7.57;;
65835;SDS011;52595;51.608;7.216;2023-06-01T07:30:08;14.70;;;7.68;;
65835;SDS011;52595;51.608;7.216;2023-06-01T07:32:35;12.48;;;7.57;;
65835;SDS011;52595;51.608;7.216;2023-06-01T07:35:01;16.15;;;7.80;;
65835;SDS011;52595;51.608;7.216;2023-06-01T07:37:28;17.52;;;7.95;;
65835;SDS011;52595;51.608;7.216;2023-06-01T07:39:54;14.20;;;7.50;;
65835;SDS011;52595;51.608;7.216;2023-06-01T07:42:19;11.95;;;7.68;;
65835;SDS011;52595;51.608;7.216;2023-06-01T07:44:45;13.65;;;7.65;;
65835;SDS011;52595;51.608;7.216;2023-06-01T07:47:11;12.77;;;7.47;;
65835;SDS011;52595;51.608;7.216;2023-06-01T07:49:37;13.10;;;7.90;;
65835;SDS011;52595;51.608;7.216;2023-06-01T07:52:02;15.63;;;7.70;;
65835;SDS011;52595;51.608;7.216;2023-06-01T07:54:29;12.73;;;7.70;;
65835;SDS011;52595;51.608;7.216;2023-06-01T07:56:55;13.82;;;7.60;;
65835;SDS011;52595;51.608;7.216;2023-06-01T07:59:21;17.20;;;7.90;;
65835;SDS011;52595;51.608;7.216;2023-06-01T08:01:50;15.43;;;7.97;;
65835;SDS011;52595;51.608;7.216;2023-06-01T08:04:17;14.18;;;8.60;;
65835;SDS011;52595;51.608;7.216;2023-06-01T08:06:45;15.57;;;8.45;;
65835;SDS011;52595;51.608;7.216;2023-06-01T08:09:11;13.50;;;7.90;;
65835;SDS011;52595;51.608;7.216;2023-06-01T08:11:36;13.80;;;8.30;;
65835;SDS011;52595;51.608;7.216;2023-06-01T08:14:02;16.77;;;8.88;;
65835;SDS011;52595;51.608;7.216;2023-06-01T08:16:32;19.08;;;8.70;;
65835;SDS011;52595;51.608;7.216;2023-06-01T08:18:58;14.93;;;8.38;;
65835;SDS011;52595;51.608;7.216;2023-06-01T08:21:24;15.25;;;8.50;;
65835;SDS011;52595;51.608;7.216;2023-06-01T08:23:50;15.18;;;8.68;;
65835;SDS011;52595;51.608;7.216;2023-06-01T08:26:16;17.88;;;10.27;;
65835;SDS011;52595;51.608;7.216;2023-06-01T08:28:44;18.02;;;10.63;;
65835;SDS011;52595;51.608;7.216;2023-06-01T08:31:16;19.90;;;11.75;;
65835;SDS011;52595;51.608;7.216;2023-06-01T08:33:45;20.65;;;11.60;;
65835;SDS011;52595;51.608;7.216;2023-06-01T08:36:11;19.00;;;11.57;;
65835;SDS011;52595;51.608;7.216;2023-06-01T08:38:36;22.73;;;12.02;;
65835;SDS011;52595;51.608;7.216;2023-06-01T08:41:03;22.73;;;12.07;;
65835;SDS011;52595;51.608;7.216;2023-06-01T08:43:46;20.38;;;11.93;;
65835;SDS011;52595;51.608;7.216;2023-06-01T08:46:18;22.23;;;12.02;;
65835;SDS011;52595;51.608;7.216;2023-06-01T08:48:45;19.83;;;11.68;;
65835;SDS011;52595;51.608;7.216;2023-06-01T08:51:12;18.23;;;11.65;;
65835;SDS011;52595;51.608;7.216;2023-06-01T08:53:38;19.45;;;11.75;;
65835;SDS011;52595;51.608;7.216;2023-06-01T08:56:07;19.42;;;11.48;;
65835;SDS011;52595;51.608;7.216;2023-06-01T08:58:32;16.05;;;10.20;;
65835;SDS011;52595;51.608;7.216;2023-06-01T09:00:58;15.55;;;9.48;;
65835;SDS011;52595;51.608;7.216;2023-06-01T09:03:24;19.63;;;11.23;;
65835;SDS011;52595;51.608;7.216;2023-06-01T09:05:50;23.30;;;11.77;;
65835;SDS011;52595;51.608;7.216;2023-06-01T09:08:15;21.42;;;11.85;;
65835;SDS011;52595;51.608;7.216;2023-06-01T09:10:41;21.60;;;11.65;;
65835;SDS011;52595;51.608;7.216;2023-06-01T09:13:06;21.98;;;11.82;;
65835;SDS011;52595;51.608;7.216;2023-06-01T09:15:32;24.42;;;12.27;;
65835;SDS011;52595;51.608;7.216;2023-06-01T09:18:05;25.67;;;12.75;;
65835;SDS011;52595;51.608;7.216;2023-06-01T09:20:37;21.50;;;12.07;;
65835;SDS011;52595;51.608;7.216;2023-06-01T09:23:04;22.00;;;11.57;;
65835;SDS011;52595;51.608;7.216;2023-06-01T09:25:31;24.13;;;12.75;;
65835;SDS011;52595;51.608;7.216;2023-06-01T09:27:57;22.02;;;12.27;;
65835;SDS011;52595;51.608;7.216;2023-06-01T09:30:25;19.67;;;11.40;;
65835;SDS011;52595;51.608;7.216;2023-06-01T09:33:13;22.85;;;13.45;;
65835;SDS011;52595;51.608;7.216;2023-06-01T09:35:43;19.38;;;12.10;;
65835;SDS011;52595;51.608;7.216;2023-06-01T09:38:10;20.00;;;12.43;;
65835;SDS011;52595;51.608;7.216;2023-06-01T09:40:37;24.10;;;13.07;;
65835;SDS011;52595;51.608;7.216;2023-06-01T09:43:17;21.85;;;12.43;;
65835;SDS011;52595;51.608;7.216;2023-06-01T09:45:45;20.73;;;12.60;;
65835;SDS011;52595;51.608;7.216;2023-06-01T09:48:17;23.02;;;12.77;;
65835;SDS011;52595;51.608;7.216;2023-06-01T09:50:43;22.75;;;13.63;;
65835;SDS011;52595;51.608;7.216;2023-06-01T09:53:09;23.95;;;14.13;;
65835;SDS011;52595;51.608;7.216;2023-06-01T09:55:34;21.33;;;13.38;;
65835;SDS011;52595;51.608;7.216;2023-06-01T09:58:19;22.00;;;13.02;;
65835;SDS011;52595;51.608;7.216;2023-06-01T10:00:46;22.75;;;12.68;;
65835;SDS011;52595;51.608;7.216;2023-06-01T10:03:16;20.23;;;13.07;;
65835;SDS011;52595;51.608;7.216;2023-06-01T10:05:45;22.63;;;13.65;;
65835;SDS011;52595;51.608;7.216;2023-06-01T10:08:11;21.48;;;12.20;;
65835;SDS011;52595;51.608;7.216;2023-06-01T10:10:39;19.55;;;11.50;;
65835;SDS011;52595;51.608;7.216;2023-06-01T10:13:06;19.05;;;11.32;;
65835;SDS011;52595;51.608;7.216;2023-06-01T10:15:32;20.23;;;12.07;;
65835;SDS011;52595;51.608;7.216;2023-06-01T10:17:59;19.50;;;12.07;;
65835;SDS011;52595;51.608;7.216;2023-06-01T10:20:25;20.77;;;12.93;;
65835;SDS011;52595;51.608;7.216;2023-06-01T10:22:50;19.35;;;11.45;;
65835;SDS011;52595;51.608;7.216;2023-06-01T10:25:16;19.50;;;11.45;;
65835;SDS011;52595;51.608;7.216;2023-06-01T10:27:51;19.70;;;11.65;;
65835;SDS011;52595;51.608;7.216;2023-06-01T10:30:20;18.52;;;10.95;;
65835;SDS011;52595;51.608;7.216;2023-06-01T10:32:46;18.55;;;12.38;;
65835;SDS011;52595;51.608;7.216;2023-06-01T10:40:34;16.83;;;10.35;;
65835;SDS011;52595;51.608;7.216;2023-06-01T10:43:03;18.42;;;10.52;;
65835;SDS011;52595;51.608;7.216;2023-06-01T10:48:05;20.73;;;10.18;;
65835;SDS011;52595;51.608;7.216;2023-06-01T10:50:37;14.88;;;9.57;;
65835;SDS011;52595;51.608;7.216;2023-06-01T10:53:24;14.85;;;9.82;;
65835;SDS011;52595;51.608;7.216;2023-06-01T10:58:45;15.85;;;9.68;;
65835;SDS011;52595;51.608;7.216;2023-06-01T11:01:17;12.85;;;8.25;;
65835;SDS011;52595;51.608;7.216;2023-06-01T11:03:45;13.32;;;8.65;;
65835;SDS011;52595;51.608;7.216;2023-06-01T11:06:24;20.27;;;8.80;;
65835;SDS011;52595;51.608;7.216;2023-06-01T11:08:52;14.80;;;8.40;;
65835;SDS011;52595;51.608;7.216;2023-06-01T11:11:19;11.57;;;7.75;;
65835;SDS011;52595;51.608;7.216;2023-06-01T11:13:45;13.15;;;8.35;;
65835;SDS011;52595;51.608;7.216;2023-06-01T11:16:31;17.55;;;8.35;;
65835;SDS011;52595;51.608;7.216;2023-06-01T11:19:00;14.68;;;7.82;;
65835;SDS011;52595;51.608;7.216;2023-06-01T11:24:09;14.50;;;7.38;;
65835;SDS011;52595;51.608;7.216;2023-06-01T11:26:38;11.27;;;7.70;;
65835;SDS011;52595;51.608;7.216;2023-06-01T11:34:08;17.85;;;7.53;;
65835;SDS011;52595;51.608;7.216;2023-06-01T11:36:36;14.27;;;7.10;;
65835;SDS011;52595;51.608;7.216;2023-06-01T11:42:10;9.50;;;6.68;;
65835;SDS011;52595;51.608;7.216;2023-06-01T11:44:38;13.10;;;6.88;;
65835;SDS011;52595;51.608;7.216;2023-06-01T11:47:06;10.20;;;6.55;;
65835;SDS011;52595;51.608;7.216;2023-06-01T11:49:40;12.38;;;6.53;;
65835;SDS011;52595;51.608;7.216;2023-06-01T11:52:18;9.52;;;6.13;;
65835;SDS011;52595;51.608;7.216;2023-06-01T11:54:44;10.65;;;5.90;;
65835;SDS011;52595;51.608;7.216;2023-06-01T11:57:11;10.10;;;5.68;;
65835;SDS011;52595;51.608;7.216;2023-06-01T12:02:03;9.20;;;5.32;;
65835;SDS011;52595;51.608;7.216;2023-06-01T12:04:53;10.38;;;5.28;;
65835;SDS011;52595;51.608;7.216;2023-06-01T12:07:22;8.20;;;5.35;;
65835;SDS011;52595;51.608;7.216;2023-06-01T12:09:49;9.60;;;5.05;;
65835;SDS011;52595;51.608;7.216;2023-06-01T12:12:16;7.63;;;5.50;;
65835;SDS011;52595;51.608;7.216;2023-06-01T12:14:42;9.15;;;5.93;;
65835;SDS011;52595;51.608;7.216;2023-06-01T12:17:08;9.43;;;5.30;;
65835;SDS011;52595;51.608;7.216;2023-06-01T12:19:44;10.77;;;5.80;;
65835;SDS011;52595;51.608;7.216;2023-06-01T12:22:13;8.23;;;5.55;;
65835;SDS011;52595;51.608;7.216;2023-06-01T12:24:38;9.18;;;5.60;;
65835;SDS011;52595;51.608;7.216;2023-06-01T12:27:12;9.65;;;5.72;;
65835;SDS011;52595;51.608;7.216;2023-06-01T12:29:42;8.50;;;5.80;;
65835;SDS011;52595;51.608;7.216;2023-06-01T12:32:10;9.63;;;5.60;;
65835;SDS011;52595;51.608;7.216;2023-06-01T12:34:37;7.80;;;5.22;;
65835;SDS011;52595;51.608;7.216;2023-06-01T12:37:13;11.23;;;5.40;;
65835;SDS011;52595;51.608;7.216;2023-06-01T12:39:51;12.38;;;5.85;;
65835;SDS011;52595;51.608;7.216;2023-06-01T12:42:19;11.25;;;6.25;;
65835;SDS011;52595;51.608;7.216;2023-06-01T12:44:46;13.65;;;6.32;;
65835;SDS011;52595;51.608;7.216;2023-06-01T12:47:17;11.63;;;5.80;;
65835;SDS011;52595;51.608;7.216;2023-06-01T12:50:01;9.68;;;6.13;;
65835;SDS011;52595;51.608;7.216;2023-06-01T12:52:27;9.65;;;6.15;;
65835;SDS011;52595;51.608;7.216;2023-06-01T12:54:53;12.15;;;6.45;;
65835;SDS011;52595;51.608;7.216;2023-06-01T12:57:18;11.07;;;5.50;;
65835;SDS011;52595;51.608;7.216;2023-06-01T12:59:43;10.75;;;5.75;;
65835;SDS011;52595;51.608;7.216;2023-06-01T13:02:09;10.02;;;5.80;;
65835;SDS011;52595;51.608;7.216;2023-06-01T13:04:34;10.05;;;5.93;;
65835;SDS011;52595;51.608;7.216;2023-06-01T13:07:00;8.48;;;5.70;;
65835;SDS011;52595;51.608;7.216;2023-06-01T13:09:27;8.88;;;5.68;;
65835;SDS011;52595;51.608;7.216;2023-06-01T13:11:53;9.90;;;5.68;;
65835;SDS011;52595;51.608;7.216;2023-06-01T13:14:18;7.78;;;5.78;;
65835;SDS011;52595;51.608;7.216;2023-06-01T13:16:44;8.25;;;5.30;;
65835;SDS011;52595;51.608;7.216;2023-06-01T13:19:10;7.93;;;5.88;;
65835;SDS011;52595;51.608;7.216;2023-06-01T13:21:35;8.80;;;5.43;;
65835;SDS011;52595;51.608;7.216;2023-06-01T13:24:01;10.95;;;5.78;;
65835;SDS011;52595;51.608;7.216;2023-06-01T13:26:28;8.25;;;5.47;;
65835;SDS011;52595;51.608;7.216;2023-06-01T13:28:54;8.80;;;5.40;;
65835;SDS011;52595;51.608;7.216;2023-06-01T13:31:19;10.48;;;6.53;;
65835;SDS011;52595;51.608;7.216;2023-06-01T13:33:45;9.43;;;5.57;;
65835;SDS011;52595;51.608;7.216;2023-06-01T13:36:10;10.85;;;6.05;;
65835;SDS011;52595;51.608;7.216;2023-06-01T13:38:35;8.75;;;5.93;;
65835;SDS011;52595;51.608;7.216;2023-06-01T13:41:01;9.55;;;5.65;;
65835;SDS011;52595;51.608;7.216;2023-06-01T13:43:26;8.73;;;5.53;;
65835;SDS011;52595;51.608;7.216;2023-06-01T13:45:52;8.27;;;5.78;;
65835;SDS011;52595;51.608;7.216;2023-06-01T13:48:18;7.32;;;5.28;;
65835;SDS011;52595;51.608;7.216;2023-06-01T13:50:43;8.30;;;5.25;;
65835;SDS011;52595;51.608;7.216;2023-06-01T13:53:09;8.93;;;5.07;;
65835;SDS011;52595;51.608;7.216;2023-06-01T13:55:34;11.27;;;5.85;;
65835;SDS011;52595;51.608;7.216;2023-06-01T13:58:01;9.35;;;6.03;;
65835;SDS011;52595;51.608;7.216;2023-06-01T14:00:27;8.45;;;5.18;;
65835;SDS011;52595;51.608;7.216;2023-06-01T14:02:52;8.85;;;5.72;;
65835;SDS011;52595;51.608;7.216;2023-06-01T14:05:18;7.53;;;5.35;;
65835;SDS011;52595;51.608;7.216;2023-06-01T14:07:43;7.57;;;5.60;;
65835;SDS011;52595;51.608;7.216;2023-06-01T14:10:11;7.85;;;5.45;;
65835;SDS011;52595;51.608;7.216;2023-06-01T14:12:38;9.02;;;5.85;;
65835;SDS011;52595;51.608;7.216;2023-06-01T14:15:04;8.68;;;5.72;;
65835;SDS011;52595;51.608;7.216;2023-06-01T14:17:30;9.73;;;5.82;;
65835;SDS011;52595;51.608;7.216;2023-06-01T14:19:56;10.18;;;6.10;;
65835;SDS011;52595;51.608;7.216;2023-06-01T14:22:21;8.88;;;6.38;;
65835;SDS011;52595;51.608;7.216;2023-06-01T14:24:47;9.70;;;6.20;;
65835;SDS011;52595;51.608;7.216;2023-06-01T14:27:12;9.57;;;6.72;;
65835;SDS011;52595;51.608;7.216;2023-06-01T14:29:37;9.63;;;5.68;;
65835;SDS011;52595;51.608;7.216;2023-06-01T14:32:03;9.23;;;5.20;;
65835;SDS011;52595;51.608;7.216;2023-06-01T14:34:29;9.75;;;5.90;;
65835;SDS011;52595;51.608;7.216;2023-06-01T14:36:54;9.48;;;5.00;;
65835;SDS011;52595;51.608;7.216;2023-06-01T14:39:19;7.43;;;5.45;;
65835;SDS011;52595;51.608;7.216;2023-06-01T14:41:45;7.13;;;5.03;;
65835;SDS011;52595;51.608;7.216;2023-06-01T14:44:10;6.53;;;4.55;;
65835;SDS011;52595;51.608;7.216;2023-06-01T14:46:36;7.13;;;5.30;;
65835;SDS011;52595;51.608;7.216;2023-06-01T14:49:02;7.93;;;4.80;;
65835;SDS011;52595;51.608;7.216;2023-06-01T14:51:29;7.35;;;4.80;;
65835;SDS011;52595;51.608;7.216;2023-06-01T14:53:54;9.40;;;4.72;;
65835;SDS011;52595;51.608;7.216;2023-06-01T14:56:20;8.57;;;5.30;;
65835;SDS011;52595;51.608;7.216;2023-06-01T14:58:47;7.57;;;5.13;;
65835;SDS011;52595;51.608;7.216;2023-06-01T15:01:12;6.25;;;4.38;;
65835;SDS011;52595;51.608;7.216;2023-06-01T15:03:37;8.07;;;4.40;;
65835;SDS011;52595;51.608;7.216;2023-06-01T15:06:03;8.30;;;4.88;;